Terminal Aerodrome Forecast
Issued by NWS North Platte, NE

Home | Current Version | Previous Version | Text Only | Print | Product List | Glossary On
Versions: 1 2 3 4 5 6 7 8 9 10 11 12 13 14 15 16 17
000
FTUS43 KLBF 242326
TAFLBF
TAF
KLBF 242326Z 2500/2524 15006KT P6SM SCT080
     FM250400 07005KT P6SM FEW100 SCT200
     FM251400 10004KT P6SM SCT120
     FM252100 16006KT P6SM SCT060=

USA.gov is the U.S. government's official web portal to all federal, state and local government web resources and services.